createdAt,value
2019-05-14T00:02:12.163Z,11.10
2019-05-14T00:04:44.419Z,11.10
2019-05-14T00:07:14.773Z,11.10
2019-05-14T00:09:45.260Z,11.00
2019-05-14T00:12:11.646Z,10.80
2019-05-14T00:14:40.155Z,10.90
2019-05-14T00:17:11.263Z,10.80
2019-05-14T00:19:41.703Z,10.70
2019-05-14T00:22:15.954Z,10.70
2019-05-14T00:24:43.326Z,10.60
2019-05-14T00:27:11.675Z,10.60
2019-05-14T00:29:54.883Z,10.50
2019-05-14T00:32:22.129Z,10.50
2019-05-14T00:34:51.377Z,10.40
2019-05-14T00:37:19.036Z,10.30
2019-05-14T00:39:47.742Z,10.20
2019-05-14T00:42:13.762Z,10.10
2019-05-14T00:44:53.810Z,10.00
2019-05-14T00:47:11.774Z,10.00
2019-05-14T00:49:48.668Z,10.00
2019-05-14T00:52:23.076Z,10.00
2019-05-14T00:54:52.227Z,10.00
2019-05-14T00:57:18.391Z,10.00
2019-05-14T00:59:52.576Z,9.90
2019-05-14T01:02:25.460Z,9.80
2019-05-14T01:04:52.658Z,9.80
2019-05-14T01:07:24.602Z,9.60
2019-05-14T01:09:52.616Z,9.60
2019-05-14T01:12:21.448Z,9.60
2019-05-14T01:14:47.691Z,9.50
2019-05-14T01:17:14.825Z,9.50
2019-05-14T01:19:42.738Z,9.50
2019-05-14T01:22:12.477Z,9.50
2019-05-14T01:24:38.805Z,9.70
2019-05-14T01:27:05.847Z,9.60
2019-05-14T01:29:33.857Z,9.40
2019-05-14T01:32:04.289Z,9.30
2019-05-14T01:34:32.620Z,9.30
2019-05-14T01:37:03.896Z,9.30
2019-05-14T01:39:32.336Z,9.30
2019-05-14T01:42:06.444Z,9.30
2019-05-14T01:44:41.234Z,9.30
2019-05-14T01:47:08.347Z,9.20
2019-05-14T01:49:42.532Z,9.20
2019-05-14T01:52:11.399Z,9.20
2019-05-14T01:54:37.603Z,9.20
2019-05-14T01:57:03.848Z,9.10
2019-05-14T01:59:32.163Z,9.10
2019-05-14T02:02:03.182Z,9.20
2019-05-14T02:04:31.158Z,9.20
2019-05-14T02:07:11.740Z,9.30
2019-05-14T02:09:41.959Z,9.30
2019-05-14T02:12:11.748Z,9.30
2019-05-14T02:14:42.377Z,9.40
2019-05-14T02:17:08.956Z,9.30
2019-05-14T02:19:35.449Z,9.30
2019-05-14T02:22:05.057Z,9.40
2019-05-14T02:24:32.224Z,9.40
2019-05-14T02:27:01.885Z,9.50
2019-05-14T02:29:31.995Z,9.40
2019-05-14T02:32:00.424Z,9.30
2019-05-14T02:34:30.459Z,9.20
2019-05-14T02:37:01.538Z,9.30
2019-05-14T02:39:31.576Z,9.30
2019-05-14T02:41:59.016Z,9.30
2019-05-14T02:44:33.119Z,9.30
2019-05-14T02:46:59.430Z,9.20
2019-05-14T02:49:30.702Z,9.00
2019-05-14T02:52:02.792Z,8.90
2019-05-14T02:54:44.052Z,8.90
2019-05-14T02:57:12.112Z,8.90
2019-05-14T02:59:39.397Z,8.90
2019-05-14T03:02:09.858Z,8.90
2019-05-14T03:04:39.560Z,8.90
2019-05-14T03:07:11.129Z,8.80
2019-05-14T03:09:50.169Z,8.80
2019-05-14T03:12:19.415Z,8.70
2019-05-14T03:14:53.549Z,8.70
2019-05-14T03:17:23.128Z,8.70
2019-05-14T03:19:53.264Z,8.80
2019-05-14T03:22:46.937Z,8.70
2019-05-14T03:25:10.041Z,8.70
2019-05-14T03:27:34.449Z,8.70
2019-05-14T03:30:12.223Z,8.70
2019-05-14T03:32:42.409Z,8.80
2019-05-14T03:35:15.321Z,8.80
2019-05-14T03:37:43.940Z,8.90
2019-05-14T03:40:19.578Z,8.60
2019-05-14T03:42:49.010Z,8.60
2019-05-14T03:45:22.526Z,8.50
2019-05-14T03:47:51.039Z,8.60
2019-05-14T03:50:24.384Z,8.60
2019-05-14T03:53:04.084Z,8.60
2019-05-14T03:55:31.169Z,8.50
2019-05-14T03:57:59.404Z,8.50
2019-05-14T04:00:50.089Z,8.50
2019-05-14T04:03:21.037Z,8.50
2019-05-14T04:05:52.223Z,8.60
2019-05-14T04:08:33.177Z,8.60
2019-05-14T04:11:02.146Z,8.60
2019-05-14T04:13:40.808Z,8.60
2019-05-14T04:16:11.880Z,8.60
2019-05-14T04:18:50.117Z,8.50
2019-05-14T04:21:23.075Z,8.60
2019-05-14T04:23:51.568Z,8.60
2019-05-14T04:26:21.979Z,8.50
2019-05-14T04:28:50.186Z,8.50
2019-05-14T04:31:29.815Z,8.40
2019-05-14T04:34:01.418Z,8.40
2019-05-14T04:36:30.252Z,8.40
2019-05-14T04:39:00.601Z,8.40
2019-05-14T04:41:25.653Z,8.40
2019-05-14T04:44:03.206Z,8.40
2019-05-14T04:46:31.171Z,8.40
2019-05-14T04:49:04.504Z,8.40
2019-05-14T04:51:32.598Z,8.30
2019-05-14T04:54:01.225Z,8.20
2019-05-14T04:56:30.224Z,8.30
2019-05-14T04:58:58.846Z,8.40
2019-05-14T05:01:32.112Z,8.50
2019-05-14T05:03:59.068Z,8.50
2019-05-14T05:06:35.220Z,8.50
2019-05-14T05:09:05.798Z,8.50
2019-05-14T05:11:33.349Z,8.50
2019-05-14T05:14:01.544Z,8.50
2019-05-14T05:16:29.988Z,8.60
2019-05-14T05:18:59.164Z,8.60
2019-05-14T05:21:33.273Z,8.70
2019-05-14T05:24:02.595Z,8.60
2019-05-14T05:26:29.745Z,8.50
2019-05-14T05:29:05.541Z,8.40
2019-05-14T05:31:24.764Z,8.30
2019-05-14T05:33:58.265Z,8.40
2019-05-14T05:36:31.864Z,8.40
2019-05-14T05:38:59.528Z,8.40
2019-05-14T05:41:31.082Z,8.30
2019-05-14T05:44:08.013Z,8.30
2019-05-14T05:46:33.984Z,8.50
2019-05-14T05:49:07.886Z,8.40
2019-05-14T05:51:34.026Z,8.40
2019-05-14T05:54:04.191Z,8.40
2019-05-14T05:56:35.534Z,8.50
2019-05-14T05:59:01.784Z,8.60
2019-05-14T06:01:41.811Z,8.70
2019-05-14T06:04:11.994Z,8.90
2019-05-14T06:06:41.083Z,9.00
2019-05-14T06:09:09.576Z,9.10
2019-05-14T06:11:39.556Z,8.90
2019-05-14T06:14:12.988Z,8.80
2019-05-14T06:16:38.979Z,8.80
2019-05-14T06:19:08.014Z,8.90
2019-05-14T06:21:41.061Z,9.00
2019-05-14T06:24:10.207Z,9.30
2019-05-14T06:26:39.400Z,9.60
2019-05-14T06:29:10.532Z,9.70
2019-05-14T06:31:49.353Z,9.90
2019-05-14T06:34:28.898Z,9.90
2019-05-14T06:36:54.787Z,9.70
2019-05-14T06:39:38.827Z,9.80
2019-05-14T06:42:15.661Z,9.90
2019-05-14T06:44:44.883Z,9.90
2019-05-14T06:47:15.112Z,9.90
2019-05-14T06:49:40.596Z,9.90
2019-05-14T06:52:08.975Z,10.00
2019-05-14T06:54:49.912Z,10.10
2019-05-14T06:57:31.252Z,10.10
2019-05-14T06:59:58.929Z,10.40
2019-05-14T07:02:33.426Z,10.60
2019-05-14T07:05:11.808Z,10.50
2019-05-14T07:07:40.588Z,10.50
2019-05-14T07:10:19.639Z,10.40
2019-05-14T07:12:50.089Z,10.30
2019-05-14T07:15:18.306Z,10.50
2019-05-14T07:17:53.346Z,10.70
2019-05-14T07:20:19.623Z,10.90
2019-05-14T07:23:01.901Z,11.00
2019-05-14T07:25:31.024Z,11.20
2019-05-14T07:27:58.323Z,11.40
2019-05-14T07:30:30.335Z,11.50
2019-05-14T07:32:58.700Z,11.60
2019-05-14T07:35:25.958Z,11.60
2019-05-14T07:37:54.139Z,11.60
2019-05-14T07:40:21.175Z,11.60
2019-05-14T07:42:50.305Z,11.70
2019-05-14T07:45:18.447Z,11.80
2019-05-14T07:47:49.167Z,11.70
2019-05-14T07:50:19.632Z,11.70
2019-05-14T07:52:46.070Z,11.70
2019-05-14T07:55:13.984Z,11.70
2019-05-14T07:57:40.091Z,11.80
2019-05-14T08:00:15.007Z,11.80
2019-05-14T08:02:44.108Z,11.70
2019-05-14T08:05:12.588Z,12.00
2019-05-14T08:07:44.519Z,12.10
2019-05-14T08:10:13.405Z,12.20
2019-05-14T08:12:42.745Z,12.10
2019-05-14T08:15:48.844Z,12.30
2019-05-14T08:18:20.952Z,12.30
2019-05-14T08:21:01.728Z,12.20
2019-05-14T08:23:34.991Z,12.20
2019-05-14T08:26:04.835Z,12.40
2019-05-14T08:28:31.767Z,12.70
2019-05-14T08:30:59.834Z,12.90
2019-05-14T08:33:25.911Z,13.10
2019-05-14T08:36:00.791Z,13.20
2019-05-14T08:38:28.455Z,13.30
2019-05-14T08:41:01.097Z,13.30
2019-05-14T08:43:35.296Z,13.20
2019-05-14T08:46:05.396Z,13.20
2019-05-14T08:48:44.607Z,13.30
2019-05-14T08:51:11.713Z,13.50
2019-05-14T08:53:50.371Z,13.60
2019-05-14T08:56:19.352Z,13.70
2019-05-14T08:58:49.141Z,13.80
2019-05-14T09:01:15.634Z,13.50
2019-05-14T09:03:43.025Z,13.70
2019-05-14T09:06:09.384Z,14.00
2019-05-14T09:08:38.921Z,14.20
2019-05-14T09:11:09.870Z,14.30
2019-05-14T09:13:39.719Z,14.40
2019-05-14T09:16:08.976Z,14.50
2019-05-14T09:18:38.480Z,14.60
2019-05-14T09:21:05.743Z,14.80
2019-05-14T09:23:43.471Z,14.90
2019-05-14T09:26:14.527Z,15.00
2019-05-14T09:28:40.611Z,15.00
2019-05-14T09:31:22.524Z,15.10
2019-05-14T09:34:14.055Z,15.10
2019-05-14T09:36:40.324Z,15.10
2019-05-14T09:39:11.982Z,15.10
2019-05-14T09:41:42.748Z,14.90
2019-05-14T09:44:13.004Z,14.70
2019-05-14T09:46:45.312Z,14.80
2019-05-14T09:49:13.340Z,15.00
2019-05-14T09:51:42.444Z,14.70
2019-05-14T09:54:08.744Z,14.80
2019-05-14T09:56:39.347Z,14.90
2019-05-14T09:59:09.166Z,15.00
2019-05-14T10:01:50.638Z,15.00
2019-05-14T10:04:19.744Z,15.00
2019-05-14T10:06:48.536Z,15.00
2019-05-14T10:09:31.110Z,14.70
2019-05-14T10:11:57.985Z,14.60
2019-05-14T10:14:25.609Z,14.90
2019-05-14T10:16:52.078Z,15.30
2019-05-14T10:19:23.399Z,15.60
2019-05-14T10:22:08.104Z,16.00
2019-05-14T10:24:43.420Z,16.10
2019-05-14T10:27:11.573Z,16.00
2019-05-14T10:29:49.539Z,15.60
2019-05-14T10:32:18.818Z,15.40
2019-05-14T10:34:45.310Z,15.00
2019-05-14T10:37:19.329Z,14.70
2019-05-14T10:39:45.707Z,14.40
2019-05-14T10:42:21.854Z,14.10
2019-05-14T10:44:49.263Z,14.30
2019-05-14T10:47:18.969Z,14.30
2019-05-14T10:49:46.231Z,14.20
2019-05-14T10:52:13.453Z,14.30
2019-05-14T10:54:55.010Z,14.40
2019-05-14T10:57:10.693Z,14.80
2019-05-14T10:59:37.031Z,15.20
2019-05-14T11:02:13.426Z,15.40
2019-05-14T11:04:43.764Z,15.40
2019-05-14T11:07:12.810Z,15.70
2019-05-14T11:09:38.904Z,16.10
2019-05-14T11:12:08.820Z,16.40
2019-05-14T11:14:45.631Z,16.40
2019-05-14T11:17:12.131Z,16.20
2019-05-14T11:19:40.601Z,16.30
2019-05-14T11:22:11.176Z,16.40
2019-05-14T11:24:40.203Z,16.60
2019-05-14T11:27:12.956Z,16.90
2019-05-14T11:29:46.266Z,17.20
2019-05-14T11:32:19.765Z,17.30
2019-05-14T11:35:04.109Z,17.20
2019-05-14T11:37:24.719Z,17.10
2019-05-14T11:40:02.591Z,17.10
2019-05-14T11:42:35.150Z,16.80
2019-05-14T11:45:11.128Z,16.60
2019-05-14T11:47:38.005Z,17.20
2019-05-14T11:50:09.912Z,17.50
2019-05-14T11:52:39.159Z,17.10
2019-05-14T11:55:09.039Z,16.40
2019-05-14T11:57:37.538Z,16.10
2019-05-14T12:00:08.524Z,16.50
2019-05-14T12:02:34.869Z,16.60
2019-05-14T12:05:05.074Z,16.10
2019-05-14T12:07:42.175Z,15.70
2019-05-14T12:10:29.136Z,15.80
2019-05-14T12:12:59.996Z,16.00
2019-05-14T12:15:26.428Z,16.00
2019-05-14T12:17:59.490Z,16.30
2019-05-14T12:20:29.610Z,16.40
2019-05-14T12:23:04.763Z,16.60
2019-05-14T12:25:31.993Z,16.40
2019-05-14T12:27:59.223Z,16.30
2019-05-14T12:30:30.301Z,16.30
2019-05-14T12:32:59.018Z,16.70
2019-05-14T12:35:40.408Z,17.10
2019-05-14T12:38:10.640Z,17.20
2019-05-14T12:40:48.413Z,16.80
2019-05-14T12:43:28.172Z,16.60
2019-05-14T12:45:54.498Z,16.20
2019-05-14T12:48:24.797Z,16.10
2019-05-14T12:50:54.314Z,16.10
2019-05-14T12:53:31.493Z,16.30
2019-05-14T12:56:00.121Z,16.60
2019-05-14T12:58:28.339Z,17.10
2019-05-14T13:00:55.114Z,17.10
2019-05-14T13:03:25.162Z,17.20
2019-05-14T13:05:58.568Z,17.50
2019-05-14T13:08:33.559Z,17.80
2019-05-14T13:11:05.386Z,18.30
2019-05-14T13:13:34.492Z,18.10
2019-05-14T13:16:19.174Z,17.80
2019-05-14T13:18:54.098Z,17.40
2019-05-14T13:21:31.143Z,17.80
2019-05-14T13:23:59.169Z,18.40
2019-05-14T13:26:32.699Z,18.60
2019-05-14T13:28:59.054Z,18.40
2019-05-14T13:31:34.737Z,18.30
2019-05-14T13:34:01.874Z,17.80
2019-05-14T13:36:44.546Z,17.40
2019-05-14T13:39:15.388Z,17.80
2019-05-14T13:41:55.153Z,17.90
2019-05-14T13:44:25.075Z,18.20
2019-05-14T13:46:53.430Z,18.70
2019-05-14T13:49:29.244Z,19.10
2019-05-14T13:51:55.135Z,19.40
2019-05-14T13:54:22.692Z,19.60
2019-05-14T13:56:48.795Z,19.60
2019-05-14T13:59:18.748Z,19.40
2019-05-14T14:01:48.691Z,19.70
2019-05-14T14:04:23.794Z,20.00
2019-05-14T14:07:00.867Z,20.20
2019-05-14T14:09:31.759Z,19.90
2019-05-14T14:12:04.333Z,19.40
2019-05-14T14:14:39.997Z,18.80
2019-05-14T14:17:08.990Z,18.50
2019-05-14T14:19:38.908Z,18.20
2019-05-14T14:22:10.606Z,18.20
2019-05-14T14:24:48.761Z,18.10
2019-05-14T14:27:19.643Z,18.60
2019-05-14T14:29:51.653Z,19.30
2019-05-14T14:32:32.747Z,19.60
2019-05-14T14:35:02.553Z,19.20
2019-05-14T14:37:28.938Z,19.20
2019-05-14T14:40:02.436Z,19.70
2019-05-14T14:42:35.370Z,20.10
2019-05-14T14:45:08.429Z,20.30
2019-05-14T14:47:35.471Z,20.10
2019-05-14T14:50:05.181Z,19.70
2019-05-14T14:52:32.439Z,19.60
2019-05-14T14:55:02.125Z,19.40
2019-05-14T14:57:31.385Z,19.40
2019-05-14T15:00:19.273Z,19.30
2019-05-14T15:02:49.595Z,19.30
2019-05-14T15:05:19.725Z,19.30
2019-05-14T15:07:49.697Z,19.30
2019-05-14T15:10:20.098Z,19.10
2019-05-14T15:12:50.699Z,18.70
2019-05-14T15:15:18.645Z,17.90
2019-05-14T15:17:48.887Z,17.70
2019-05-14T15:20:19.268Z,17.80
2019-05-14T15:22:48.695Z,18.00
2019-05-14T15:25:14.434Z,18.60
2019-05-14T15:27:49.053Z,19.20
2019-05-14T15:30:21.180Z,19.60
2019-05-14T15:32:51.115Z,19.80
2019-05-14T15:35:22.140Z,19.20
2019-05-14T15:38:01.330Z,18.90
2019-05-14T15:40:39.262Z,18.70
2019-05-14T15:43:18.787Z,18.30
2019-05-14T15:45:48.750Z,18.10
2019-05-14T15:48:19.932Z,17.90
2019-05-14T15:50:50.215Z,17.80
2019-05-14T15:53:19.580Z,17.80
2019-05-14T15:55:45.849Z,18.10
2019-05-14T15:58:20.878Z,18.20
2019-05-14T16:00:45.346Z,18.50
2019-05-14T16:03:14.350Z,18.70
2019-05-14T16:05:51.620Z,18.60
2019-05-14T16:08:18.826Z,18.10
2019-05-14T16:10:45.968Z,17.50
2019-05-14T16:13:21.253Z,17.50
2019-05-14T16:15:48.715Z,17.40
2019-05-14T16:18:19.655Z,17.50
2019-05-14T16:20:45.795Z,17.60
2019-05-14T16:23:18.803Z,17.40
2019-05-14T16:25:48.882Z,17.60
2019-05-14T16:28:20.998Z,17.90
2019-05-14T16:30:49.593Z,18.30
2019-05-14T16:33:18.384Z,18.50
2019-05-14T16:35:51.317Z,18.30
2019-05-14T16:38:28.515Z,18.00
2019-05-14T16:41:09.812Z,18.10
2019-05-14T16:43:35.916Z,17.60
2019-05-14T16:46:05.182Z,17.40
2019-05-14T16:48:35.459Z,17.30
2019-05-14T16:51:05.100Z,17.30
2019-05-14T16:53:33.238Z,17.40
2019-05-14T16:56:08.374Z,17.70
2019-05-14T16:58:38.333Z,18.10
2019-05-14T17:01:10.108Z,18.40
2019-05-14T17:03:39.285Z,18.60
2019-05-14T17:06:14.330Z,18.30
2019-05-14T17:08:43.354Z,18.50
2019-05-14T17:11:18.316Z,18.60
2019-05-14T17:13:49.214Z,18.50
2019-05-14T17:16:15.553Z,18.60
2019-05-14T17:18:59.263Z,18.40
2019-05-14T17:21:28.119Z,18.50
2019-05-14T17:24:01.644Z,18.60
2019-05-14T17:26:38.060Z,18.80
2019-05-14T17:29:09.557Z,18.90
2019-05-14T17:31:42.257Z,19.00
2019-05-14T17:34:09.471Z,19.00
2019-05-14T17:36:41.737Z,18.90
2019-05-14T17:39:08.654Z,19.00
2019-05-14T17:41:48.694Z,19.10
2019-05-14T17:44:24.595Z,18.90
2019-05-14T17:47:07.213Z,18.70
2019-05-14T17:49:38.941Z,18.60
2019-05-14T17:52:14.077Z,18.60
2019-05-14T17:54:42.184Z,18.80
2019-05-14T17:57:12.309Z,18.70
2019-05-14T17:59:39.116Z,18.80
2019-05-14T18:02:09.260Z,18.60
2019-05-14T18:04:40.410Z,18.40
2019-05-14T18:07:08.792Z,18.50
2019-05-14T18:09:36.189Z,18.70
2019-05-14T18:12:08.680Z,18.80
2019-05-14T18:14:44.408Z,18.70
2019-05-14T18:17:18.977Z,18.60
2019-05-14T18:19:48.328Z,18.60
2019-05-14T18:22:14.673Z,18.20
2019-05-14T18:24:59.192Z,17.80
2019-05-14T18:27:32.550Z,17.40
2019-05-14T18:30:30.677Z,17.00
2019-05-14T18:32:59.363Z,16.60
2019-05-14T18:35:46.458Z,16.40
2019-05-14T18:38:15.506Z,16.30
2019-05-14T18:40:59.475Z,16.30
2019-05-14T18:43:30.079Z,16.30
2019-05-14T18:45:58.670Z,16.30
2019-05-14T18:48:32.107Z,16.20
2019-05-14T18:51:00.993Z,16.10
2019-05-14T18:53:39.422Z,16.10
2019-05-14T18:56:20.271Z,16.00
2019-05-14T18:58:40.861Z,15.90
2019-05-14T19:01:19.581Z,15.80
2019-05-14T19:03:49.307Z,15.60
2019-05-14T19:06:28.402Z,15.40
2019-05-14T19:09:11.534Z,15.30
2019-05-14T19:11:39.727Z,15.20
2019-05-14T19:14:11.918Z,15.10
2019-05-14T19:16:58.476Z,15.00
2019-05-14T19:19:25.984Z,14.80
2019-05-14T19:22:03.266Z,14.60
2019-05-14T19:24:29.444Z,14.60
2019-05-14T19:27:00.977Z,14.50
2019-05-14T19:29:36.130Z,14.40
2019-05-14T19:32:19.020Z,14.30
2019-05-14T19:34:56.883Z,14.30
2019-05-14T19:37:40.354Z,14.10
2019-05-14T19:40:11.833Z,14.00
2019-05-14T19:42:43.394Z,13.90
2019-05-14T19:45:17.753Z,13.80
2019-05-14T19:47:45.068Z,13.70
2019-05-14T19:50:22.683Z,13.70
2019-05-14T19:52:50.025Z,13.60
2019-05-14T19:55:19.065Z,13.70
2019-05-14T19:57:48.787Z,13.80
2019-05-14T20:00:20.211Z,13.80
2019-05-14T20:02:48.605Z,13.80
2019-05-14T20:05:22.928Z,13.70
2019-05-14T20:07:53.211Z,13.70
2019-05-14T20:10:21.600Z,13.70
2019-05-14T20:12:48.266Z,13.60
2019-05-14T20:15:14.699Z,13.60
2019-05-14T20:18:02.898Z,13.60
2019-05-14T20:20:30.020Z,13.60
2019-05-14T20:23:14.083Z,13.60
2019-05-14T20:25:53.631Z,13.50
2019-05-14T20:28:24.345Z,13.50
2019-05-14T20:30:53.110Z,13.40
2019-05-14T20:33:19.837Z,13.40
2019-05-14T20:36:02.105Z,13.20
2019-05-14T20:38:38.832Z,13.20
2019-05-14T20:41:08.535Z,13.20
2019-05-14T20:43:38.543Z,13.20
2019-05-14T20:46:09.886Z,13.00
2019-05-14T20:48:44.318Z,13.00
2019-05-14T20:51:14.529Z,13.00
2019-05-14T20:53:55.092Z,12.90
2019-05-14T20:56:33.307Z,12.80
2019-05-14T20:59:00.722Z,12.80
2019-05-14T21:01:29.136Z,12.80
2019-05-14T21:03:59.218Z,12.90
2019-05-14T21:06:39.032Z,12.80
2019-05-14T21:09:29.588Z,12.80
2019-05-14T21:12:03.034Z,12.60
2019-05-14T21:14:31.388Z,12.40
2019-05-14T21:16:58.521Z,12.40
2019-05-14T21:19:38.835Z,12.30
2019-05-14T21:22:21.384Z,12.30
2019-05-14T21:24:54.216Z,12.20
2019-05-14T21:27:44.549Z,12.10
2019-05-14T21:30:03.820Z,12.00
2019-05-14T21:32:42.431Z,11.90
2019-05-14T21:35:09.087Z,12.00
2019-05-14T21:37:35.321Z,12.00
2019-05-14T21:40:18.643Z,12.00
2019-05-14T21:42:51.530Z,12.10
2019-05-14T21:45:30.866Z,12.10
2019-05-14T21:47:59.414Z,12.20
2019-05-14T21:50:47.332Z,12.20
2019-05-14T21:53:24.250Z,12.20
2019-05-14T21:55:58.710Z,12.00
2019-05-14T21:58:25.003Z,11.90
2019-05-14T22:00:59.047Z,11.80
2019-05-14T22:03:35.695Z,11.80
2019-05-14T22:05:59.322Z,11.80
2019-05-14T22:08:34.505Z,11.90
2019-05-14T22:11:13.758Z,11.90
2019-05-14T22:13:41.864Z,12.00
2019-05-14T22:16:11.164Z,12.00
2019-05-14T22:18:39.338Z,11.90
2019-05-14T22:21:08.817Z,11.70
2019-05-14T22:23:43.199Z,11.70
2019-05-14T22:26:11.516Z,11.60
2019-05-14T22:28:42.511Z,11.50
2019-05-14T22:31:16.405Z,11.60
2019-05-14T22:33:42.279Z,11.70
2019-05-14T22:36:21.476Z,11.80
2019-05-14T22:38:48.205Z,11.80
2019-05-14T22:41:18.406Z,11.70
2019-05-14T22:43:48.806Z,11.70
2019-05-14T22:46:22.602Z,11.70
2019-05-14T22:48:52.800Z,11.60
2019-05-14T22:51:23.184Z,11.40
2019-05-14T22:53:52.109Z,11.20
2019-05-14T22:56:41.843Z,11.20
2019-05-14T22:59:07.930Z,11.20
2019-05-14T23:01:38.458Z,11.30
2019-05-14T23:04:14.541Z,11.40
2019-05-14T23:06:43.594Z,11.30
2019-05-14T23:09:09.869Z,11.30
2019-05-14T23:11:42.611Z,11.30
2019-05-14T23:14:18.533Z,11.30
2019-05-14T23:16:49.003Z,11.40
2019-05-14T23:19:29.935Z,11.30
2019-05-14T23:21:53.984Z,11.30
2019-05-14T23:24:28.471Z,11.20
2019-05-14T23:26:58.504Z,11.20
2019-05-14T23:29:34.388Z,11.20
2019-05-14T23:32:04.688Z,11.20
2019-05-14T23:34:39.869Z,11.30
2019-05-14T23:37:13.827Z,11.20
2019-05-14T23:39:46.338Z,11.20
2019-05-14T23:42:15.163Z,11.20
2019-05-14T23:44:43.579Z,11.10
2019-05-14T23:47:26.087Z,11.00
2019-05-14T23:49:53.129Z,10.90
2019-05-14T23:52:31.161Z,10.80
2019-05-14T23:54:57.574Z,10.70
2019-05-14T23:57:23.754Z,10.80
2019-05-14T23:59:53.673Z,10.70
